Time;durP1;ratioP1;P1;durP2;ratioP2;P2;SDS_P1;SDS_P2;PMS_P1;PMS_P2;Temp;Humidity;BMP_temperature;BMP_pressure;BME280_temperature;BME280_humidity;BME280_pressure;Samples;Min_cycle;Max_cycle;Signal;HPM_P1;HPM_P2
2021/09/28 00:00:19;;;;;;;0.50;0.40;;;12.10;99.90;;;;;;5091221;28;20197;-79
2021/09/28 00:02:45;;;;;;;0.70;0.68;;;12.10;99.90;;;;;;5091859;28;20205;-77
2021/09/28 00:05:13;;;;;;;0.50;0.40;;;12.10;99.90;;;;;;5091526;28;20200;-78
2021/09/28 00:07:40;;;;;;;0.50;0.40;;;12.10;99.90;;;;;;5092006;28;20217;-78
2021/09/28 00:10:07;;;;;;;0.50;0.40;;;12.10;99.90;;;;;;5091200;28;20190;-77
2021/09/28 00:12:34;;;;;;;3.50;2.25;;;12.10;99.90;;;;;;5091807;28;20200;-79
2021/09/28 00:15:01;;;;;;;0.50;0.40;;;12.00;99.90;;;;;;5091693;28;20213;-79
2021/09/28 00:17:27;;;;;;;0.70;0.70;;;12.00;99.90;;;;;;5092365;28;20589;-78
2021/09/28 00:19:54;;;;;;;0.50;0.40;;;12.00;99.90;;;;;;5095901;28;20205;-79
2021/09/28 00:22:22;;;;;;;0.50;0.40;;;11.90;99.90;;;;;;5094869;28;20684;-80
2021/09/28 00:24:49;;;;;;;0.77;0.77;;;11.90;99.90;;;;;;5095702;28;20822;-77
2021/09/28 00:27:16;;;;;;;0.63;0.63;;;11.90;99.90;;;;;;5094900;28;20224;-78
2021/09/28 00:29:42;;;;;;;0.50;0.40;;;11.90;99.90;;;;;;5095544;28;20191;-79
2021/09/28 00:32:09;;;;;;;0.50;0.40;;;11.80;99.90;;;;;;5095230;28;20219;-79
2021/09/28 00:34:40;;;;;;;0.50;0.47;;;11.80;99.90;;;;;;5095229;28;20223;-79
2021/09/28 00:37:06;;;;;;;0.50;0.40;;;11.80;99.90;;;;;;5095062;28;20218;-78
2021/09/28 00:39:35;;;;;;;0.50;0.40;;;11.80;99.90;;;;;;5097334;28;20665;-79
2021/09/28 00:42:01;;;;;;;0.50;0.40;;;11.80;99.90;;;;;;5094299;28;20738;-79
2021/09/28 00:44:34;;;;;;;0.50;0.40;;;11.80;99.90;;;;;;5094456;28;20189;-79
2021/09/28 00:47:00;;;;;;;0.50;0.50;;;11.80;99.90;;;;;;5094803;28;20613;-79
2021/09/28 00:49:27;;;;;;;0.50;0.40;;;11.80;99.90;;;;;;5094810;28;20249;-79
2021/09/28 00:51:54;;;;;;;0.50;0.40;;;11.80;99.90;;;;;;5094192;28;20193;-79
2021/09/28 00:54:21;;;;;;;0.50;0.40;;;11.80;99.90;;;;;;5094261;28;20197;-77
2021/09/28 00:56:49;;;;;;;0.50;0.40;;;11.80;99.90;;;;;;5093503;28;20227;-77
2021/09/28 00:59:16;;;;;;;3.35;0.80;;;11.80;99.90;;;;;;5094354;28;20196;-78
2021/09/28 01:01:45;;;;;;;0.50;0.40;;;11.80;99.90;;;;;;5093751;28;20212;-75
2021/09/28 01:04:16;;;;;;;0.65;0.60;;;11.80;99.90;;;;;;5094175;28;20206;-78
2021/09/28 01:06:43;;;;;;;0.50;0.40;;;11.80;99.90;;;;;;5094477;28;20225;-78
2021/09/28 01:09:11;;;;;;;0.60;0.60;;;11.80;99.90;;;;;;5094002;28;20443;-79
2021/09/28 01:11:39;;;;;;;0.50;0.40;;;11.70;99.90;;;;;;5093559;28;20232;-79
2021/09/28 01:14:07;;;;;;;0.50;0.40;;;11.70;99.90;;;;;;5093603;28;20206;-79
2021/09/28 01:16:34;;;;;;;0.50;0.40;;;11.70;99.90;;;;;;5094091;28;20596;-79
2021/09/28 01:19:01;;;;;;;0.50;0.40;;;11.70;99.90;;;;;;5093653;28;20684;-79
2021/09/28 01:21:30;;;;;;;0.50;0.40;;;11.70;99.90;;;;;;5093263;28;20554;-79
2021/09/28 01:23:57;;;;;;;0.50;0.35;;;11.70;99.90;;;;;;5094054;28;20204;-79
2021/09/28 01:26:24;;;;;;;0.60;0.40;;;11.70;99.90;;;;;;5093698;28;20242;-76
2021/09/28 01:28:52;;;;;;;0.50;0.30;;;11.60;99.90;;;;;;5094075;28;20195;-79
2021/09/28 01:31:19;;;;;;;0.50;0.40;;;11.60;99.90;;;;;;5093430;28;20229;-79
2021/09/28 01:33:46;;;;;;;0.50;0.40;;;11.60;99.90;;;;;;5093713;28;20200;-77
2021/09/28 01:36:13;;;;;;;1.83;1.73;;;11.60;99.90;;;;;;5093067;28;20220;-78
2021/09/28 01:38:41;;;;;;;1.30;1.20;;;11.60;99.90;;;;;;5093481;28;20223;-74
2021/09/28 01:41:08;;;;;;;0.70;0.68;;;11.50;99.90;;;;;;5093389;28;20196;-79
2021/09/28 01:43:34;;;;;;;0.50;0.40;;;11.50;99.90;;;;;;5093923;28;20207;-78
2021/09/28 01:46:03;;;;;;;2.47;2.38;;;11.50;99.90;;;;;;5093305;28;20213;-81
2021/09/28 01:48:35;;;;;;;0.50;0.40;;;11.50;99.90;;;;;;5093419;28;20203;-80
2021/09/28 01:51:02;;;;;;;1.83;1.73;;;11.50;99.90;;;;;;5093183;28;20349;-79
2021/09/28 01:53:29;;;;;;;0.93;0.93;;;11.50;99.90;;;;;;5093428;28;20200;-79
2021/09/28 01:55:57;;;;;;;1.15;1.05;;;11.50;99.90;;;;;;5093171;28;20231;-77
2021/09/28 01:58:23;;;;;;;0.50;0.40;;;11.50;99.90;;;;;;5093157;28;20192;-78
2021/09/28 02:00:50;;;;;;;0.85;0.85;;;11.50;99.90;;;;;;5093126;28;20554;-80
2021/09/28 02:03:17;;;;;;;1.45;1.35;;;11.50;99.90;;;;;;5093529;28;20200;-79
2021/09/28 02:05:44;;;;;;;0.50;0.40;;;11.50;99.90;;;;;;5092897;28;20238;-78
2021/09/28 02:08:11;;;;;;;0.80;0.50;;;11.50;99.90;;;;;;5093063;28;20764;-78
2021/09/28 02:10:38;;;;;;;1.23;1.13;;;11.50;99.90;;;;;;5092623;28;20205;-78
2021/09/28 02:13:06;;;;;;;0.50;0.40;;;11.40;99.90;;;;;;5092887;28;20195;-78
2021/09/28 02:15:33;;;;;;;1.77;1.67;;;11.50;99.90;;;;;;5092791;28;20218;-78
2021/09/28 02:18:00;;;;;;;3.15;0.90;;;11.40;99.90;;;;;;5091797;28;20254;-78
2021/09/28 02:20:27;;;;;;;0.50;0.40;;;11.40;99.90;;;;;;5092514;28;20200;-78
2021/09/28 02:22:54;;;;;;;9.98;1.70;;;11.40;99.90;;;;;;5092786;28;20195;-78
2021/09/28 02:25:21;;;;;;;0.50;0.40;;;11.40;99.90;;;;;;5092336;28;20666;-79
2021/09/28 02:27:48;;;;;;;0.50;0.40;;;11.40;99.90;;;;;;5092538;28;20225;-79
2021/09/28 02:30:16;;;;;;;0.50;0.40;;;11.30;99.90;;;;;;5092418;28;20222;-78
2021/09/28 02:32:43;;;;;;;0.50;0.40;;;11.30;99.90;;;;;;5092504;28;20204;-78
2021/09/28 02:35:10;;;;;;;0.50;0.40;;;11.30;99.90;;;;;;5092616;28;20215;-79
2021/09/28 02:37:36;;;;;;;0.50;0.40;;;11.30;99.90;;;;;;5092481;28;20220;-80
2021/09/28 02:40:04;;;;;;;0.50;0.40;;;11.30;99.90;;;;;;5092287;28;20196;-78
2021/09/28 02:42:31;;;;;;;0.50;0.40;;;11.30;99.90;;;;;;5092164;28;20195;-79
2021/09/28 02:44:57;;;;;;;0.50;0.50;;;11.30;99.90;;;;;;5092600;28;20222;-78
2021/09/28 02:47:26;;;;;;;0.50;0.40;;;11.30;99.90;;;;;;5092114;28;20222;-78
2021/09/28 02:49:53;;;;;;;0.50;0.40;;;11.30;99.90;;;;;;5091951;28;20203;-79
2021/09/28 02:52:20;;;;;;;0.50;0.40;;;11.30;99.90;;;;;;5092075;28;20575;-79
2021/09/28 02:54:47;;;;;;;0.50;0.40;;;11.30;99.90;;;;;;5092219;28;20199;-77
2021/09/28 02:57:13;;;;;;;0.50;0.38;;;11.30;99.90;;;;;;5091448;28;20296;-79
2021/09/28 02:59:41;;;;;;;0.85;0.50;;;11.30;99.90;;;;;;5093754;28;20205;-78
2021/09/28 03:02:07;;;;;;;0.50;0.40;;;11.30;99.90;;;;;;5091455;28;20193;-79
2021/09/28 03:04:36;;;;;;;1.05;0.68;;;11.30;99.90;;;;;;5091930;28;20202;-78
2021/09/28 03:07:03;;;;;;;0.90;0.52;;;11.30;99.90;;;;;;5092161;28;20424;-77
2021/09/28 03:09:30;;;;;;;11.18;10.38;;;11.40;99.90;;;;;;5091865;28;20203;-78
2021/09/28 03:11:57;;;;;;;0.50;0.40;;;11.30;99.90;;;;;;5091485;28;20245;-78
2021/09/28 03:14:23;;;;;;;1.52;0.93;;;11.30;99.90;;;;;;5091679;28;20688;-78
2021/09/28 03:16:50;;;;;;;0.50;0.40;;;11.40;99.90;;;;;;5092113;28;20220;-78
2021/09/28 03:19:20;;;;;;;0.50;0.40;;;11.40;99.90;;;;;;5091434;28;20207;-78
2021/09/28 03:21:49;;;;;;;0.60;0.43;;;11.40;99.90;;;;;;5091589;28;20208;-77
2021/09/28 03:24:15;;;;;;;0.50;0.40;;;11.40;99.90;;;;;;5091961;28;20672;-78
2021/09/28 03:26:42;;;;;;;0.50;0.40;;;11.40;99.90;;;;;;5091927;28;20216;-79
2021/09/28 03:29:09;;;;;;;0.50;0.45;;;11.40;99.90;;;;;;5091722;28;20196;-78
2021/09/28 03:31:35;;;;;;;0.50;0.40;;;11.40;99.90;;;;;;5091366;28;20707;-77
2021/09/28 03:34:02;;;;;;;0.50;0.40;;;11.40;99.90;;;;;;5091629;28;20753;-77
2021/09/28 03:36:29;;;;;;;0.60;0.50;;;11.40;99.90;;;;;;5092051;28;20219;-77
2021/09/28 03:38:57;;;;;;;0.50;0.40;;;11.40;99.90;;;;;;5091847;28;20198;-77
2021/09/28 03:41:24;;;;;;;0.50;0.40;;;11.40;99.90;;;;;;5091740;28;20200;-78
2021/09/28 03:43:51;;;;;;;0.50;0.40;;;11.40;99.90;;;;;;5092074;28;20249;-77
2021/09/28 03:46:17;;;;;;;0.50;0.40;;;11.40;99.90;;;;;;5091783;28;20268;-77
2021/09/28 03:48:44;;;;;;;0.70;0.65;;;11.40;99.90;;;;;;5091344;28;20210;-77
2021/09/28 03:51:12;;;;;;;0.50;0.40;;;11.40;99.90;;;;;;5091587;28;20245;-76
2021/09/28 03:53:39;;;;;;;1.48;1.10;;;11.40;99.90;;;;;;5094255;28;20196;-77
2021/09/28 03:56:07;;;;;;;0.60;0.60;;;11.40;99.90;;;;;;5095007;28;20255;-78
2021/09/28 03:58:33;;;;;;;0.50;0.40;;;11.40;99.90;;;;;;5095201;28;20761;-78
2021/09/28 04:01:00;;;;;;;1.67;0.88;;;11.40;99.90;;;;;;5095434;28;20249;-78
2021/09/28 04:03:27;;;;;;;1.02;0.70;;;11.40;99.90;;;;;;5095584;28;20204;-77
2021/09/28 04:05:54;;;;;;;0.70;0.70;;;11.30;99.90;;;;;;5094766;28;20203;-77
2021/09/28 04:08:20;;;;;;;2.50;1.50;;;11.40;99.90;;;;;;5095372;28;20252;-77
2021/09/28 04:10:47;;;;;;;1.50;1.35;;;11.40;99.90;;;;;;5094660;28;20197;-77
2021/09/28 04:13:15;;;;;;;0.50;0.40;;;11.30;99.90;;;;;;5095382;28;20204;-77
2021/09/28 04:15:42;;;;;;;0.50;0.40;;;11.30;99.90;;;;;;5095053;28;20217;-77
2021/09/28 04:18:10;;;;;;;2.60;1.20;;;11.30;99.90;;;;;;5094793;28;20192;-77
2021/09/28 04:20:38;;;;;;;0.50;0.40;;;11.30;99.90;;;;;;5094587;28;20191;-77
2021/09/28 04:23:05;;;;;;;0.50;0.40;;;11.30;99.90;;;;;;5095097;28;20202;-78
2021/09/28 04:25:32;;;;;;;1.00;1.00;;;11.30;99.90;;;;;;5095031;28;20190;-79
2021/09/28 04:27:58;;;;;;;0.73;0.55;;;11.30;99.90;;;;;;5094850;28;20215;-78
2021/09/28 04:30:26;;;;;;;0.50;0.40;;;11.30;99.90;;;;;;5094468;28;20209;-78
2021/09/28 04:32:53;;;;;;;0.55;0.55;;;11.20;99.90;;;;;;5095048;28;20199;-77
2021/09/28 04:35:20;;;;;;;0.50;0.40;;;11.30;99.90;;;;;;5094513;28;20691;-78
2021/09/28 04:37:47;;;;;;;1.10;1.02;;;11.30;99.90;;;;;;5094955;28;20220;-78
2021/09/28 04:40:14;;;;;;;0.50;0.40;;;11.20;99.90;;;;;;5094344;28;20189;-77
2021/09/28 04:42:41;;;;;;;0.65;0.60;;;11.20;99.90;;;;;;5094300;28;20250;-77
2021/09/28 04:45:09;;;;;;;0.50;0.40;;;11.20;99.90;;;;;;5094561;28;20196;-77
2021/09/28 04:47:38;;;;;;;0.50;0.40;;;11.30;99.90;;;;;;5094505;28;20239;-77
2021/09/28 04:50:06;;;;;;;0.90;0.75;;;11.20;99.90;;;;;;5093881;28;20573;-78
2021/09/28 04:52:33;;;;;;;0.50;0.40;;;11.20;99.90;;;;;;5094485;28;20821;-77
2021/09/28 04:55:00;;;;;;;0.98;0.98;;;11.20;99.90;;;;;;5094042;28;20203;-79
2021/09/28 04:57:27;;;;;;;0.50;0.40;;;11.20;99.90;;;;;;5084498;28;20233;-78
2021/09/28 04:59:53;;;;;;;0.55;0.47;;;11.20;99.90;;;;;;5077792;28;20665;-78
2021/09/28 05:02:20;;;;;;;16.40;2.15;;;11.10;99.90;;;;;;5073386;28;20615;-79
2021/09/28 05:04:48;;;;;;;0.50;0.50;;;11.20;99.90;;;;;;5073929;28;20199;-78
2021/09/28 05:07:14;;;;;;;0.85;0.73;;;11.20;99.90;;;;;;5073671;28;20218;-78
2021/09/28 05:09:43;;;;;;;0.50;0.40;;;11.20;99.90;;;;;;5074815;28;20204;-78
2021/09/28 05:12:11;;;;;;;0.50;0.40;;;11.20;99.90;;;;;;5074305;28;20577;-78
2021/09/28 05:14:37;;;;;;;0.50;0.40;;;11.10;99.90;;;;;;5074699;28;20203;-78
2021/09/28 05:17:05;;;;;;;0.50;0.40;;;11.00;99.90;;;;;;5074629;28;20274;-78
2021/09/28 05:19:31;;;;;;;49.67;2.05;;;11.10;99.90;;;;;;5073738;28;20548;-79
2021/09/28 05:21:59;;;;;;;0.50;0.40;;;11.10;99.90;;;;;;5074417;28;20204;-79
2021/09/28 05:24:26;;;;;;;0.50;0.50;;;11.10;99.90;;;;;;5074544;28;20602;-79
2021/09/28 05:26:53;;;;;;;0.50;0.40;;;11.10;99.90;;;;;;5074096;28;20277;-79
2021/09/28 05:29:19;;;;;;;1.65;1.55;;;11.00;99.90;;;;;;5074566;28;20207;-80
2021/09/28 05:31:47;;;;;;;0.50;0.40;;;11.00;99.90;;;;;;5073985;28;20242;-76
2021/09/28 05:34:15;;;;;;;0.50;0.40;;;11.00;99.90;;;;;;5073515;28;20194;-77
2021/09/28 05:36:42;;;;;;;1.42;1.33;;;11.00;99.90;;;;;;5072947;28;20225;-78
2021/09/28 05:39:10;;;;;;;0.50;0.40;;;11.00;99.90;;;;;;5073524;28;20200;-78
2021/09/28 05:41:37;;;;;;;0.65;0.65;;;11.00;99.90;;;;;;5073155;28;20277;-78
2021/09/28 05:44:04;;;;;;;0.50;0.40;;;11.00;99.90;;;;;;5073188;28;20203;-78
2021/09/28 05:46:31;;;;;;;0.60;0.60;;;11.00;99.90;;;;;;5072971;28;20279;-77
2021/09/28 05:48:58;;;;;;;0.50;0.40;;;10.90;99.90;;;;;;5074453;28;20252;-78
2021/09/28 05:51:27;;;;;;;0.50;0.40;;;11.00;99.90;;;;;;5082124;28;20202;-81
2021/09/28 05:53:57;;;;;;;0.50;0.40;;;11.00;99.90;;;;;;5093395;28;20271;-79
2021/09/28 05:56:25;;;;;;;0.50;0.40;;;11.00;99.90;;;;;;5073771;28;20224;-79
2021/09/28 05:58:51;;;;;;;0.50;0.40;;;11.00;99.90;;;;;;5072637;28;20628;-79
2021/09/28 06:01:18;;;;;;;0.50;0.40;;;11.10;99.90;;;;;;5093080;28;20199;-79
2021/09/28 06:03:45;;;;;;;0.50;0.40;;;11.10;99.90;;;;;;5093543;28;20203;-78
2021/09/28 06:06:12;;;;;;;0.50;0.30;;;11.10;99.90;;;;;;5093536;28;20554;-78
2021/09/28 06:08:39;;;;;;;0.50;0.50;;;11.20;99.90;;;;;;5073729;28;20628;-79
2021/09/28 06:11:05;;;;;;;0.50;0.40;;;11.20;99.90;;;;;;5073247;28;20301;-79
2021/09/28 06:13:34;;;;;;;0.82;0.82;;;11.20;99.90;;;;;;5072890;28;20200;-77
2021/09/28 06:16:00;;;;;;;0.60;0.57;;;11.30;99.90;;;;;;5090735;28;20596;-79
2021/09/28 06:18:27;;;;;;;0.50;0.40;;;11.30;99.90;;;;;;5091833;28;20331;-79
2021/09/28 06:20:54;;;;;;;0.50;0.40;;;11.40;99.90;;;;;;5091803;28;20682;-79
2021/09/28 06:23:21;;;;;;;0.50;0.40;;;11.50;99.90;;;;;;5091266;28;20236;-78
2021/09/28 06:25:47;;;;;;;0.50;0.38;;;11.50;99.90;;;;;;5091264;28;20200;-78
2021/09/28 06:28:14;;;;;;;0.50;0.40;;;11.50;99.90;;;;;;5091890;28;20192;-78
2021/09/28 06:30:43;;;;;;;0.50;0.40;;;11.60;99.90;;;;;;5090068;28;20196;-78
2021/09/28 06:33:10;;;;;;;0.50;0.40;;;11.70;99.90;;;;;;5092342;28;20227;-79
2021/09/28 06:35:36;;;;;;;0.50;0.40;;;11.80;99.90;;;;;;5092162;28;20207;-78
2021/09/28 06:38:06;;;;;;;3.20;1.15;;;11.90;99.90;;;;;;5092339;28;20290;-78
2021/09/28 06:40:33;;;;;;;0.50;0.40;;;12.20;99.90;;;;;;5092386;28;20291;-78
2021/09/28 06:42:59;;;;;;;0.50;0.40;;;12.40;99.90;;;;;;5092934;28;20204;-79
2021/09/28 06:45:26;;;;;;;0.50;0.40;;;12.70;99.90;;;;;;5092501;28;20204;-78
2021/09/28 06:47:54;;;;;;;0.70;0.70;;;12.80;99.90;;;;;;5092830;28;20846;-79
2021/09/28 06:50:21;;;;;;;0.60;0.60;;;12.90;99.90;;;;;;5091821;28;20439;-78
2021/09/28 06:52:48;;;;;;;0.50;0.40;;;13.00;99.90;;;;;;5091800;28;20212;-77
2021/09/28 06:55:14;;;;;;;2.30;2.20;;;13.10;99.90;;;;;;5092651;28;20475;-78
2021/09/28 06:57:41;;;;;;;0.50;0.40;;;13.20;99.90;;;;;;5091997;28;20526;-75
2021/09/28 07:00:09;;;;;;;0.50;0.40;;;13.30;99.90;;;;;;5091454;28;20231;-78
2021/09/28 07:02:36;;;;;;;0.50;0.50;;;13.40;99.90;;;;;;5091958;28;20198;-78
2021/09/28 07:05:10;;;;;;;0.90;0.63;;;13.50;99.90;;;;;;5091793;28;20205;-78
2021/09/28 07:07:37;;;;;;;0.50;0.40;;;13.50;99.90;;;;;;5092067;28;20546;-78
2021/09/28 07:10:05;;;;;;;1.17;0.80;;;13.60;99.90;;;;;;5091885;28;20194;-79
2021/09/28 07:12:32;;;;;;;0.50;0.33;;;13.70;99.90;;;;;;5091412;28;20949;-79
2021/09/28 07:14:59;;;;;;;0.73;0.65;;;13.70;99.90;;;;;;5091514;28;20492;-78
2021/09/28 07:17:25;;;;;;;0.50;0.40;;;13.80;99.90;;;;;;5090879;28;20220;-78
2021/09/28 07:19:52;;;;;;;0.50;0.40;;;13.90;99.90;;;;;;5092178;28;20435;-78
2021/09/28 07:22:20;;;;;;;0.50;0.40;;;14.00;99.90;;;;;;5091292;28;20451;-80
2021/09/28 07:24:46;;;;;;;0.50;0.40;;;14.00;99.90;;;;;;5091869;28;20439;-78
2021/09/28 07:27:13;;;;;;;0.50;0.40;;;14.00;99.90;;;;;;5093761;28;20972;-78
2021/09/28 07:29:40;;;;;;;0.50;0.40;;;14.30;99.90;;;;;;5096329;28;20836;-78
2021/09/28 07:32:07;;;;;;;0.50;0.40;;;14.70;99.90;;;;;;5095877;28;20444;-78
2021/09/28 07:34:34;;;;;;;0.50;0.30;;;15.10;99.90;;;;;;5095218;28;20447;-79
2021/09/28 07:37:01;;;;;;;0.50;0.33;;;15.20;99.90;;;;;;5095595;28;20539;-78
2021/09/28 07:39:29;;;;;;;0.50;0.30;;;15.10;99.90;;;;;;5095929;28;20435;-80
2021/09/28 07:41:56;;;;;;;0.50;0.50;;;15.50;99.90;;;;;;5095430;28;20435;-77
2021/09/28 07:44:24;;;;;;;0.60;0.60;;;16.00;99.90;;;;;;5095417;28;20805;-79
2021/09/28 07:46:51;;;;;;;0.50;0.40;;;16.70;99.90;;;;;;5095826;28;20514;-78
2021/09/28 07:49:17;;;;;;;0.50;0.40;;;17.10;99.90;;;;;;5095548;28;20439;-78
2021/09/28 07:51:44;;;;;;;0.50;0.40;;;17.10;99.90;;;;;;5095184;28;20932;-78
2021/09/28 07:54:11;;;;;;;0.50;0.40;;;17.00;99.90;;;;;;5095612;28;20493;-78
2021/09/28 07:56:39;;;;;;;1.17;0.63;;;17.30;99.90;;;;;;5095642;28;20472;-78
2021/09/28 07:59:08;;;;;;;0.50;0.30;;;18.60;99.90;;;;;;5096462;28;20939;-77
2021/09/28 08:01:35;;;;;;;0.50;0.40;;;20.10;99.90;;;;;;5096518;28;20552;-79
2021/09/28 08:04:02;;;;;;;0.50;0.50;;;21.00;99.90;;;;;;5096175;28;20447;-78
2021/09/28 08:06:29;;;;;;;0.50;0.40;;;22.20;99.90;;;;;;5096758;28;20457;-81
2021/09/28 08:08:55;;;;;;;0.50;0.30;;;22.90;99.90;;;;;;5096077;28;20442;-80
2021/09/28 08:11:22;;;;;;;0.50;0.37;;;22.80;99.90;;;;;;5096448;28;20935;-79
2021/09/28 08:13:50;;;;;;;0.50;0.30;;;22.80;99.90;;;;;;5096532;28;20458;-79
2021/09/28 08:16:17;;;;;;;0.50;0.30;;;22.90;99.90;;;;;;5096500;28;21100;-79
2021/09/28 08:18:44;;;;;;;0.50;0.30;;;23.90;99.90;;;;;;5095097;28;21011;-77
2021/09/28 08:21:12;;;;;;;2.10;1.20;;;23.80;99.90;;;;;;5095708;28;20440;-79
2021/09/28 08:23:38;;;;;;;0.50;0.40;;;23.40;99.90;;;;;;5095588;28;20447;-80
2021/09/28 08:29:09;;;;;;;0.50;0.30;;;23.90;99.90;;;;;;5095256;28;20427;-79
2021/09/28 08:31:37;;;;;;;0.80;0.80;;;24.20;99.90;;;;;;5095818;28;20515;-79
2021/09/28 08:34:04;;;;;;;0.50;0.40;;;24.40;98.60;;;;;;5096180;28;20447;-79
2021/09/28 08:36:31;;;;;;;0.90;0.90;;;24.00;99.90;;;;;;5097434;28;20490;-78
2021/09/28 08:38:58;;;;;;;0.50;0.40;;;24.90;99.90;;;;;;5095142;28;20478;-79
2021/09/28 08:41:26;;;;;;;2.10;0.90;;;25.60;93.20;;;;;;5095523;28;20437;-78
2021/09/28 08:43:54;;;;;;;0.50;0.40;;;25.00;93.70;;;;;;5097431;28;20438;-79
2021/09/28 08:46:21;;;;;;;0.50;0.30;;;25.00;95.60;;;;;;5097606;28;20472;-79
2021/09/28 08:48:49;;;;;;;0.97;0.63;;;25.30;95.10;;;;;;5095358;28;20437;-80
2021/09/28 08:51:16;;;;;;;0.50;0.50;;;25.80;92.50;;;;;;5095338;28;20442;-78
2021/09/28 08:53:43;;;;;;;0.53;0.47;;;26.50;90.70;;;;;;5095220;28;20439;-79
2021/09/28 08:56:11;;;;;;;0.67;0.67;;;26.90;87.20;;;;;;5095248;28;20477;-78
2021/09/28 08:58:54;;;;;;;1.37;0.50;;;26.80;85.40;;;;;;5095311;28;20469;-79
2021/09/28 09:01:21;;;;;;;0.83;0.83;;;26.20;86.40;;;;;;5127999;22;20508;-81
2021/09/28 09:03:47;;;;;;;0.50;0.33;;;25.80;89.00;;;;;;5061084;28;20434;-82
2021/09/28 09:06:15;;;;;;;0.50;0.30;;;26.20;90.80;;;;;;5067208;28;20438;-82
2021/09/28 09:08:48;;;;;;;0.50;0.30;;;26.70;86.90;;;;;;5067866;28;20446;-85
2021/09/28 09:11:16;;;;;;;0.50;0.30;;;26.10;89.10;;;;;;5068274;28;21042;-84
2021/09/28 09:13:45;;;;;;;0.50;0.30;;;25.30;92.20;;;;;;5069606;28;20521;-81
2021/09/28 09:16:15;;;;;;;0.50;0.40;;;26.10;94.20;;;;;;5068647;28;20633;-83
2021/09/28 09:18:44;;;;;;;0.50;0.30;;;26.20;86.40;;;;;;5067025;28;21040;-84
2021/09/28 09:21:14;;;;;;;0.50;0.30;;;25.90;90.70;;;;;;5067026;28;20470;-83
2021/09/28 09:23:44;;;;;;;0.50;0.30;;;26.80;91.00;;;;;;5067655;28;20457;-84
2021/09/28 09:26:14;;;;;;;0.50;0.30;;;27.50;90.60;;;;;;5068088;28;20433;-84
2021/09/28 09:28:45;;;;;;;0.50;0.40;;;27.80;83.90;;;;;;5067774;28;20434;-83
2021/09/28 09:31:22;;;;;;;0.50;0.30;;;27.70;82.60;;;;;;5067421;28;20461;-83
2021/09/28 09:33:51;;;;;;;0.50;0.40;;;26.80;82.00;;;;;;5067483;28;20424;-83
2021/09/28 09:36:19;;;;;;;0.50;0.30;;;26.00;84.20;;;;;;5067165;28;20433;-82
2021/09/28 09:38:48;;;;;;;0.60;0.50;;;25.90;86.00;;;;;;5067330;28;20478;-84
2021/09/28 09:41:15;;;;;;;0.50;0.40;;;25.40;85.00;;;;;;5065981;28;20465;-82
2021/09/28 09:43:43;;;;;;;0.50;0.40;;;25.00;89.40;;;;;;5067704;28;20444;-82
2021/09/28 09:46:12;;;;;;;0.50;0.40;;;24.50;91.30;;;;;;5066864;28;20444;-81
2021/09/28 09:48:41;;;;;;;0.50;0.30;;;24.10;94.90;;;;;;5066868;28;20438;-83
2021/09/28 09:51:10;;;;;;;0.50;0.40;;;24.40;97.80;;;;;;5066350;28;20472;-80
2021/09/28 09:53:48;;;;;;;0.50;0.30;;;24.80;99.90;;;;;;5067310;28;20439;-82
2021/09/28 09:56:15;;;;;;;0.50;0.40;;;25.30;96.70;;;;;;5067619;28;20433;-80
2021/09/28 09:58:42;;;;;;;0.50;0.30;;;25.40;95.50;;;;;;5066617;28;20566;-83
2021/09/28 10:01:09;;;;;;;0.50;0.30;;;25.40;93.80;;;;;;5065980;28;20467;-79
2021/09/28 10:03:38;;;;;;;0.50;0.30;;;25.20;92.90;;;;;;5066558;28;20446;-82
2021/09/28 10:06:07;;;;;;;3.03;0.60;;;25.10;93.80;;;;;;5066326;28;20632;-79
2021/09/28 10:08:34;;;;;;;0.60;0.60;;;24.30;95.40;;;;;;5066645;28;20438;-83
2021/09/28 10:11:02;;;;;;;0.50;0.30;;;23.80;97.40;;;;;;5066118;28;20821;-82
2021/09/28 10:13:49;;;;;;;0.50;0.40;;;24.10;99.90;;;;;;5066256;28;20440;-82
2021/09/28 10:16:52;;;;;;;0.50;0.33;;;24.40;97.90;;;;;;5066443;28;20437;-80
2021/09/28 10:19:42;;;;;;;0.50;0.30;;;24.20;99.20;;;;;;5065801;28;20483;-82
2021/09/28 10:22:41;;;;;;;0.50;0.30;;;24.70;99.90;;;;;;5065133;28;20462;-83
2021/09/28 10:25:42;;;;;;;0.50;0.30;;;25.10;98.20;;;;;;5065103;28;20437;-82
2021/09/28 10:28:31;;;;;;;0.50;0.30;;;24.90;95.40;;;;;;5065618;28;20439;-83
2021/09/28 10:30:59;;;;;;;0.50;0.30;;;24.40;95.20;;;;;;5065575;28;20470;-83
2021/09/28 10:33:35;;;;;;;0.50;0.50;;;24.40;98.10;;;;;;5065882;28;20552;-83
2021/09/28 10:36:05;;;;;;;0.50;0.30;;;23.60;97.90;;;;;;5066203;28;20430;-84
2021/09/28 10:38:53;;;;;;;0.50;0.30;;;23.20;99.90;;;;;;5065609;28;21004;-82
2021/09/28 10:41:43;;;;;;;0.50;0.30;;;23.00;99.90;;;;;;5066470;28;20468;-84
2021/09/28 10:44:50;;;;;;;0.50;0.40;;;23.50;99.90;;;;;;5066466;28;20816;-84
2021/09/28 10:47:48;;;;;;;0.50;0.30;;;23.40;99.90;;;;;;5066728;28;20415;-83
2021/09/28 10:50:22;;;;;;;0.60;0.40;;;23.10;99.90;;;;;;5065998;28;20456;-85
2021/09/28 10:52:50;;;;;;;24.93;17.80;;;22.60;99.90;;;;;;5069430;28;20410;-84
2021/09/28 10:55:29;;;;;;;0.50;0.50;;;22.50;99.90;;;;;;5067845;28;20461;-82
2021/09/28 10:58:14;;;;;;;0.50;0.30;;;22.40;99.90;;;;;;5067730;28;20552;-83
2021/09/28 11:01:11;;;;;;;0.50;0.30;;;21.80;99.90;;;;;;5066003;28;20465;-84
2021/09/28 11:04:03;;;;;;;0.50;0.37;;;22.10;99.90;;;;;;5066049;28;20430;-84
2021/09/28 11:07:02;;;;;;;0.50;0.40;;;22.20;99.90;;;;;;5051239;28;20514;-84
2021/09/28 11:09:51;;;;;;;0.50;0.30;;;22.40;99.90;;;;;;5066563;28;20418;-84
2021/09/28 11:12:24;;;;;;;0.50;0.30;;;22.50;99.90;;;;;;5065290;28;20518;-83
2021/09/28 11:14:59;;;;;;;0.50;0.40;;;22.70;99.90;;;;;;5066761;28;20957;-84
2021/09/28 11:17:25;;;;;;;2.30;1.70;;;22.90;99.90;;;;;;5065379;28;20429;-84
2021/09/28 11:19:52;;;;;;;0.50;0.30;;;23.00;99.90;;;;;;5065255;28;20850;-83
2021/09/28 11:22:22;;;;;;;0.50;0.40;;;22.50;99.90;;;;;;5069412;28;20450;-85
2021/09/28 11:24:49;;;;;;;0.50;0.40;;;22.70;99.90;;;;;;5074693;28;20414;-84
2021/09/28 11:27:19;;;;;;;0.50;0.40;;;22.90;99.90;;;;;;5074459;28;20437;-84
2021/09/28 11:29:46;;;;;;;0.50;0.37;;;23.10;99.90;;;;;;5070161;28;20429;-85
2021/09/28 11:32:12;;;;;;;5.13;1.10;;;22.90;99.90;;;;;;5066105;28;20462;-84
2021/09/28 11:34:42;;;;;;;0.50;0.40;;;23.10;99.90;;;;;;5066928;28;20452;-84
2021/09/28 11:37:10;;;;;;;2.10;0.73;;;23.00;99.90;;;;;;5066672;28;20468;-83
2021/09/28 11:39:43;;;;;;;0.50;0.40;;;22.40;99.90;;;;;;5067265;28;20479;-84
2021/09/28 11:42:11;;;;;;;0.50;0.30;;;21.80;99.90;;;;;;5067203;28;20529;-84
2021/09/28 11:44:41;;;;;;;0.50;0.30;;;22.00;99.90;;;;;;5067804;28;20506;-85
2021/09/28 11:47:24;;;;;;;0.50;0.30;;;22.40;99.90;;;;;;5066315;28;20440;-83
2021/09/28 11:49:54;;;;;;;0.50;0.40;;;22.60;99.90;;;;;;5066467;28;20441;-84
2021/09/28 11:52:21;;;;;;;0.50;0.40;;;22.80;99.90;;;;;;5066826;28;20457;-83
2021/09/28 11:54:50;;;;;;;0.50;0.37;;;22.80;99.90;;;;;;5066196;28;20442;-84
2021/09/28 11:57:18;;;;;;;0.60;0.50;;;22.80;99.90;;;;;;5066355;28;20440;-84
2021/09/28 11:59:46;;;;;;;0.50;0.30;;;22.70;99.90;;;;;;5066030;28;20477;-82
2021/09/28 12:02:15;;;;;;;3.50;1.77;;;22.30;99.90;;;;;;5065151;28;20483;-83
2021/09/28 12:10:23;;;;;;;0.50;0.30;;;21.80;99.90;;;;;;5064968;28;20481;-82
2021/09/28 12:12:51;;;;;;;0.50;0.40;;;22.30;99.90;;;;;;5065633;28;20510;-83
2021/09/28 12:15:20;;;;;;;0.50;0.40;;;22.50;99.90;;;;;;5069736;28;20438;-83
2021/09/28 12:17:47;;;;;;;0.50;0.33;;;22.30;99.90;;;;;;5068880;28;20438;-84
2021/09/28 12:20:16;;;;;;;0.50;0.40;;;22.00;99.90;;;;;;5068375;28;20962;-82
2021/09/28 12:22:46;;;;;;;0.50;0.40;;;21.80;99.90;;;;;;5068588;28;20446;-82
2021/09/28 12:25:14;;;;;;;0.50;0.30;;;21.90;99.90;;;;;;5069476;28;20425;-84
2021/09/28 12:27:57;;;;;;;0.50;0.37;;;21.80;99.90;;;;;;5069382;28;20429;-83
2021/09/28 12:30:26;;;;;;;0.50;0.40;;;21.60;99.90;;;;;;5069850;28;20425;-83
2021/09/28 12:32:53;;;;;;;0.50;0.30;;;21.60;99.90;;;;;;5069803;28;20433;-81
2021/09/28 12:35:29;;;;;;;0.50;0.40;;;21.60;99.90;;;;;;5069045;28;20449;-81
2021/09/28 12:37:59;;;;;;;0.60;0.40;;;21.80;99.90;;;;;;5068810;28;20441;-81
2021/09/28 12:40:29;;;;;;;0.50;0.40;;;21.80;99.90;;;;;;5069377;28;20950;-82
2021/09/28 12:43:07;;;;;;;0.50;0.30;;;21.50;99.90;;;;;;5069259;28;20441;-83
2021/09/28 12:45:55;;;;;;;0.50;0.30;;;21.20;99.90;;;;;;5068069;28;20421;-82
2021/09/28 12:48:24;;;;;;;1.67;0.60;;;21.40;99.90;;;;;;5069130;28;20430;-82
2021/09/28 12:51:01;;;;;;;0.50;0.30;;;21.60;99.90;;;;;;5067983;28;20458;-83
2021/09/28 12:53:29;;;;;;;0.50;0.40;;;21.80;99.90;;;;;;5068477;28;20450;-85
2021/09/28 12:55:56;;;;;;;0.50;0.30;;;22.00;99.90;;;;;;5068873;28;20430;-84
2021/09/28 12:58:23;;;;;;;0.50;0.30;;;22.00;99.90;;;;;;5068200;28;20479;-81
2021/09/28 13:00:52;;;;;;;0.50;0.30;;;22.30;99.90;;;;;;5067012;28;20926;-83
2021/09/28 13:03:21;;;;;;;0.50;0.30;;;22.30;99.90;;;;;;5068124;28;20786;-85